sensor_id;sensor_type;location;lat;lon;timestamp;P1;durP1;ratioP1;P2;durP2;ratioP2
15012;SDS011;7603;49.432;11.418;2023-07-02T00:01:12;2.38;;;2.28;;
15012;SDS011;7603;49.432;11.418;2023-07-02T00:03:38;2.95;;;1.80;;
15012;SDS011;7603;49.432;11.418;2023-07-02T00:06:04;1.90;;;1.73;;
15012;SDS011;7603;49.432;11.418;2023-07-02T00:08:30;2.30;;;2.10;;
15012;SDS011;7603;49.432;11.418;2023-07-02T00:10:55;3.15;;;2.17;;
15012;SDS011;7603;49.432;11.418;2023-07-02T00:13:21;4.45;;;1.80;;
15012;SDS011;7603;49.432;11.418;2023-07-02T00:15:47;2.10;;;2.00;;
15012;SDS011;7603;49.432;11.418;2023-07-02T00:18:12;2.15;;;2.05;;
15012;SDS011;7603;49.432;11.418;2023-07-02T00:20:41;2.17;;;2.08;;
15012;SDS011;7603;49.432;11.418;2023-07-02T00:23:06;2.15;;;2.05;;
15012;SDS011;7603;49.432;11.418;2023-07-02T00:25:35;2.20;;;2.10;;
15012;SDS011;7603;49.432;11.418;2023-07-02T00:28:03;2.45;;;2.30;;
15012;SDS011;7603;49.432;11.418;2023-07-02T00:30:29;2.40;;;2.25;;
15012;SDS011;7603;49.432;11.418;2023-07-02T00:32:55;2.58;;;2.47;;
15012;SDS011;7603;49.432;11.418;2023-07-02T00:35:21;2.42;;;2.33;;
15012;SDS011;7603;49.432;11.418;2023-07-02T00:37:46;2.60;;;2.50;;
15012;SDS011;7603;49.432;11.418;2023-07-02T00:40:12;2.60;;;2.50;;
15012;SDS011;7603;49.432;11.418;2023-07-02T00:42:38;2.67;;;2.58;;
15012;SDS011;7603;49.432;11.418;2023-07-02T00:45:04;2.92;;;2.72;;
15012;SDS011;7603;49.432;11.418;2023-07-02T00:47:33;2.70;;;2.50;;
15012;SDS011;7603;49.432;11.418;2023-07-02T00:50:00;3.00;;;2.67;;
15012;SDS011;7603;49.432;11.418;2023-07-02T00:52:27;3.08;;;2.97;;
15012;SDS011;7603;49.432;11.418;2023-07-02T00:54:53;3.58;;;3.20;;
15012;SDS011;7603;49.432;11.418;2023-07-02T00:57:19;3.00;;;2.90;;
15012;SDS011;7603;49.432;11.418;2023-07-02T00:59:44;3.33;;;3.13;;
15012;SDS011;7603;49.432;11.418;2023-07-02T01:02:10;3.17;;;3.03;;
15012;SDS011;7603;49.432;11.418;2023-07-02T01:04:37;3.30;;;3.10;;
15012;SDS011;7603;49.432;11.418;2023-07-02T01:07:03;3.20;;;3.00;;
15012;SDS011;7603;49.432;11.418;2023-07-02T01:09:36;4.20;;;3.88;;
15012;SDS011;7603;49.432;11.418;2023-07-02T01:12:05;4.25;;;4.05;;
15012;SDS011;7603;49.432;11.418;2023-07-02T01:14:35;3.55;;;3.25;;
15012;SDS011;7603;49.432;11.418;2023-07-02T01:17:06;3.40;;;3.20;;
15012;SDS011;7603;49.432;11.418;2023-07-02T01:22:09;3.67;;;3.47;;
15012;SDS011;7603;49.432;11.418;2023-07-02T01:24:35;3.78;;;3.42;;
15012;SDS011;7603;49.432;11.418;2023-07-02T01:27:01;3.85;;;3.65;;
15012;SDS011;7603;49.432;11.418;2023-07-02T01:29:28;3.70;;;3.50;;
15012;SDS011;7603;49.432;11.418;2023-07-02T01:31:54;3.60;;;3.40;;
15012;SDS011;7603;49.432;11.418;2023-07-02T01:34:21;3.90;;;3.60;;
15012;SDS011;7603;49.432;11.418;2023-07-02T01:36:46;4.15;;;3.75;;
15012;SDS011;7603;49.432;11.418;2023-07-02T01:39:12;3.83;;;3.45;;
15012;SDS011;7603;49.432;11.418;2023-07-02T01:41:44;4.38;;;4.07;;
15012;SDS011;7603;49.432;11.418;2023-07-02T01:44:17;4.30;;;4.10;;
15012;SDS011;7603;49.432;11.418;2023-07-02T01:46:43;4.28;;;3.88;;
15012;SDS011;7603;49.432;11.418;2023-07-02T01:49:13;4.72;;;4.43;;
15012;SDS011;7603;49.432;11.418;2023-07-02T01:51:52;4.47;;;4.20;;
15012;SDS011;7603;49.432;11.418;2023-07-02T01:54:20;4.65;;;3.80;;
15012;SDS011;7603;49.432;11.418;2023-07-02T01:56:48;4.70;;;4.40;;
15012;SDS011;7603;49.432;11.418;2023-07-02T01:59:14;4.30;;;4.07;;
15012;SDS011;7603;49.432;11.418;2023-07-02T02:01:40;4.43;;;4.13;;
15012;SDS011;7603;49.432;11.418;2023-07-02T02:04:06;4.50;;;4.30;;
15012;SDS011;7603;49.432;11.418;2023-07-02T02:06:35;4.63;;;4.28;;
15012;SDS011;7603;49.432;11.418;2023-07-02T02:09:02;4.25;;;3.97;;
15012;SDS011;7603;49.432;11.418;2023-07-02T02:11:29;5.68;;;4.13;;
15012;SDS011;7603;49.432;11.418;2023-07-02T02:13:55;4.30;;;4.10;;
15012;SDS011;7603;49.432;11.418;2023-07-02T02:16:21;4.63;;;4.22;;
15012;SDS011;7603;49.432;11.418;2023-07-02T02:18:47;4.38;;;4.05;;
15012;SDS011;7603;49.432;11.418;2023-07-02T02:21:16;4.40;;;4.10;;
15012;SDS011;7603;49.432;11.418;2023-07-02T02:23:42;4.13;;;3.90;;
15012;SDS011;7603;49.432;11.418;2023-07-02T02:26:08;4.55;;;4.25;;
15012;SDS011;7603;49.432;11.418;2023-07-02T02:28:34;5.70;;;4.50;;
15012;SDS011;7603;49.432;11.418;2023-07-02T02:30:59;3.92;;;3.70;;
15012;SDS011;7603;49.432;11.418;2023-07-02T02:33:25;4.30;;;4.10;;
15012;SDS011;7603;49.432;11.418;2023-07-02T02:35:51;4.15;;;3.85;;
15012;SDS011;7603;49.432;11.418;2023-07-02T02:38:16;4.07;;;3.78;;
15012;SDS011;7603;49.432;11.418;2023-07-02T02:40:42;4.45;;;4.05;;
15012;SDS011;7603;49.432;11.418;2023-07-02T02:43:08;4.00;;;3.80;;
15012;SDS011;7603;49.432;11.418;2023-07-02T02:45:33;3.85;;;3.65;;
15012;SDS011;7603;49.432;11.418;2023-07-02T02:47:59;4.45;;;4.15;;
15012;SDS011;7603;49.432;11.418;2023-07-02T02:50:24;3.78;;;3.58;;
15012;SDS011;7603;49.432;11.418;2023-07-02T02:52:50;3.58;;;3.38;;
15012;SDS011;7603;49.432;11.418;2023-07-02T02:55:16;4.10;;;3.80;;
15012;SDS011;7603;49.432;11.418;2023-07-02T02:57:41;3.25;;;3.05;;
15012;SDS011;7603;49.432;11.418;2023-07-02T03:00:08;3.55;;;3.35;;
15012;SDS011;7603;49.432;11.418;2023-07-02T03:02:34;3.83;;;3.63;;
15012;SDS011;7603;49.432;11.418;2023-07-02T03:05:01;4.07;;;3.85;;
15012;SDS011;7603;49.432;11.418;2023-07-02T03:07:27;3.55;;;3.25;;
15012;SDS011;7603;49.432;11.418;2023-07-02T03:09:53;4.75;;;3.83;;
15012;SDS011;7603;49.432;11.418;2023-07-02T03:12:19;6.10;;;3.88;;
15012;SDS011;7603;49.432;11.418;2023-07-02T03:14:44;4.05;;;3.47;;
15012;SDS011;7603;49.432;11.418;2023-07-02T03:17:12;5.32;;;3.70;;
15012;SDS011;7603;49.432;11.418;2023-07-02T03:19:38;3.80;;;3.60;;
15012;SDS011;7603;49.432;11.418;2023-07-02T03:22:04;3.80;;;3.60;;
15012;SDS011;7603;49.432;11.418;2023-07-02T03:24:29;3.90;;;3.50;;
15012;SDS011;7603;49.432;11.418;2023-07-02T03:26:55;3.58;;;3.38;;
15012;SDS011;7603;49.432;11.418;2023-07-02T03:29:21;3.78;;;3.47;;
15012;SDS011;7603;49.432;11.418;2023-07-02T03:31:46;4.13;;;3.75;;
15012;SDS011;7603;49.432;11.418;2023-07-02T03:34:12;4.65;;;4.35;;
15012;SDS011;7603;49.432;11.418;2023-07-02T03:36:38;4.07;;;3.78;;
15012;SDS011;7603;49.432;11.418;2023-07-02T03:39:04;3.75;;;3.45;;
15012;SDS011;7603;49.432;11.418;2023-07-02T03:41:30;3.60;;;3.40;;
15012;SDS011;7603;49.432;11.418;2023-07-02T03:43:56;4.10;;;3.80;;
15012;SDS011;7603;49.432;11.418;2023-07-02T03:46:21;4.25;;;3.95;;
15012;SDS011;7603;49.432;11.418;2023-07-02T03:48:47;3.40;;;3.20;;
15012;SDS011;7603;49.432;11.418;2023-07-02T03:51:13;4.22;;;3.60;;
15012;SDS011;7603;49.432;11.418;2023-07-02T03:53:39;3.80;;;3.55;;
15012;SDS011;7603;49.432;11.418;2023-07-02T03:56:05;4.53;;;3.50;;
15012;SDS011;7603;49.432;11.418;2023-07-02T03:58:31;5.65;;;3.75;;
15012;SDS011;7603;49.432;11.418;2023-07-02T04:00:57;4.40;;;3.83;;
15012;SDS011;7603;49.432;11.418;2023-07-02T04:03:22;3.95;;;3.72;;
15012;SDS011;7603;49.432;11.418;2023-07-02T04:05:48;5.93;;;4.10;;
15012;SDS011;7603;49.432;11.418;2023-07-02T04:08:14;3.70;;;3.47;;
15012;SDS011;7603;49.432;11.418;2023-07-02T04:10:40;3.80;;;3.38;;
15012;SDS011;7603;49.432;11.418;2023-07-02T04:13:06;4.40;;;3.20;;
15012;SDS011;7603;49.432;11.418;2023-07-02T04:15:32;3.55;;;3.03;;
15012;SDS011;7603;49.432;11.418;2023-07-02T04:17:57;3.20;;;2.90;;
15012;SDS011;7603;49.432;11.418;2023-07-02T04:20:23;3.00;;;2.80;;
15012;SDS011;7603;49.432;11.418;2023-07-02T04:22:49;3.10;;;2.80;;
15012;SDS011;7603;49.432;11.418;2023-07-02T04:25:15;3.03;;;2.83;;
15012;SDS011;7603;49.432;11.418;2023-07-02T04:27:41;3.58;;;3.17;;
15012;SDS011;7603;49.432;11.418;2023-07-02T04:30:07;3.00;;;2.80;;
15012;SDS011;7603;49.432;11.418;2023-07-02T04:32:35;3.50;;;3.30;;
15012;SDS011;7603;49.432;11.418;2023-07-02T04:35:01;2.95;;;2.70;;
15012;SDS011;7603;49.432;11.418;2023-07-02T04:37:27;3.65;;;2.83;;
15012;SDS011;7603;49.432;11.418;2023-07-02T04:39:53;3.20;;;3.00;;
15012;SDS011;7603;49.432;11.418;2023-07-02T04:42:20;3.33;;;3.03;;
15012;SDS011;7603;49.432;11.418;2023-07-02T04:44:46;3.97;;;2.95;;
15012;SDS011;7603;49.432;11.418;2023-07-02T04:47:11;2.50;;;2.30;;
15012;SDS011;7603;49.432;11.418;2023-07-02T04:49:37;3.00;;;2.45;;
15012;SDS011;7603;49.432;11.418;2023-07-02T04:52:03;2.42;;;2.28;;
15012;SDS011;7603;49.432;11.418;2023-07-02T04:54:29;3.15;;;2.95;;
15012;SDS011;7603;49.432;11.418;2023-07-02T04:56:55;3.00;;;2.63;;
15012;SDS011;7603;49.432;11.418;2023-07-02T04:59:21;2.58;;;2.45;;
15012;SDS011;7603;49.432;11.418;2023-07-02T05:01:47;2.47;;;2.28;;
15012;SDS011;7603;49.432;11.418;2023-07-02T05:04:12;2.80;;;2.60;;
15012;SDS011;7603;49.432;11.418;2023-07-02T05:06:38;2.45;;;2.25;;
15012;SDS011;7603;49.432;11.418;2023-07-02T05:09:04;5.60;;;4.57;;
15012;SDS011;7603;49.432;11.418;2023-07-02T05:11:29;4.43;;;2.88;;
15012;SDS011;7603;49.432;11.418;2023-07-02T05:13:55;6.32;;;3.40;;
15012;SDS011;7603;49.432;11.418;2023-07-02T05:16:21;3.40;;;3.10;;
15012;SDS011;7603;49.432;11.418;2023-07-02T05:18:46;3.85;;;2.85;;
15012;SDS011;7603;49.432;11.418;2023-07-02T05:21:12;3.75;;;3.33;;
15012;SDS011;7603;49.432;11.418;2023-07-02T05:23:37;5.80;;;3.28;;
15012;SDS011;7603;49.432;11.418;2023-07-02T05:26:03;5.75;;;3.25;;
15012;SDS011;7603;49.432;11.418;2023-07-02T05:28:29;4.68;;;3.28;;
15012;SDS011;7603;49.432;11.418;2023-07-02T05:30:54;4.82;;;4.00;;
15012;SDS011;7603;49.432;11.418;2023-07-02T05:33:20;4.53;;;3.28;;
15012;SDS011;7603;49.432;11.418;2023-07-02T05:35:47;4.07;;;3.25;;
15012;SDS011;7603;49.432;11.418;2023-07-02T05:38:13;3.45;;;3.22;;
15012;SDS011;7603;49.432;11.418;2023-07-02T05:40:39;4.05;;;3.45;;
15012;SDS011;7603;49.432;11.418;2023-07-02T05:43:04;3.78;;;3.47;;
15012;SDS011;7603;49.432;11.418;2023-07-02T05:45:30;3.63;;;3.17;;
15012;SDS011;7603;49.432;11.418;2023-07-02T05:47:56;4.15;;;3.40;;
15012;SDS011;7603;49.432;11.418;2023-07-02T05:50:23;5.05;;;3.90;;
15012;SDS011;7603;49.432;11.418;2023-07-02T05:52:48;6.63;;;4.10;;
15012;SDS011;7603;49.432;11.418;2023-07-02T05:55:14;5.32;;;3.80;;
15012;SDS011;7603;49.432;11.418;2023-07-02T05:57:39;3.88;;;3.58;;
15012;SDS011;7603;49.432;11.418;2023-07-02T06:00:05;3.97;;;3.42;;
15012;SDS011;7603;49.432;11.418;2023-07-02T06:02:31;3.95;;;3.65;;
15012;SDS011;7603;49.432;11.418;2023-07-02T06:04:57;3.38;;;3.10;;
15012;SDS011;7603;49.432;11.418;2023-07-02T06:07:24;4.25;;;3.05;;
15012;SDS011;7603;49.432;11.418;2023-07-02T06:09:50;3.92;;;3.13;;
15012;SDS011;7603;49.432;11.418;2023-07-02T06:12:16;4.35;;;3.17;;
15012;SDS011;7603;49.432;11.418;2023-07-02T06:14:41;3.90;;;3.47;;
15012;SDS011;7603;49.432;11.418;2023-07-02T06:17:07;3.78;;;3.28;;
15012;SDS011;7603;49.432;11.418;2023-07-02T06:19:34;4.13;;;3.40;;
15012;SDS011;7603;49.432;11.418;2023-07-02T06:22:01;3.75;;;3.45;;
15012;SDS011;7603;49.432;11.418;2023-07-02T06:24:27;3.55;;;3.20;;
15012;SDS011;7603;49.432;11.418;2023-07-02T06:26:52;3.53;;;3.13;;
15012;SDS011;7603;49.432;11.418;2023-07-02T06:29:18;3.45;;;3.15;;
15012;SDS011;7603;49.432;11.418;2023-07-02T06:31:44;4.18;;;3.65;;
15012;SDS011;7603;49.432;11.418;2023-07-02T06:34:09;3.78;;;3.50;;
15012;SDS011;7603;49.432;11.418;2023-07-02T06:36:35;5.13;;;4.47;;
15012;SDS011;7603;49.432;11.418;2023-07-02T06:39:00;8.48;;;4.15;;
15012;SDS011;7603;49.432;11.418;2023-07-02T06:41:26;4.90;;;4.20;;
15012;SDS011;7603;49.432;11.418;2023-07-02T06:43:51;6.03;;;4.95;;
15012;SDS011;7603;49.432;11.418;2023-07-02T06:46:17;5.90;;;5.28;;
15012;SDS011;7603;49.432;11.418;2023-07-02T06:48:43;8.48;;;5.50;;
15012;SDS011;7603;49.432;11.418;2023-07-02T06:51:09;6.95;;;5.35;;
15012;SDS011;7603;49.432;11.418;2023-07-02T06:53:37;6.47;;;5.93;;
15012;SDS011;7603;49.432;11.418;2023-07-02T06:56:03;6.68;;;6.07;;
15012;SDS011;7603;49.432;11.418;2023-07-02T06:58:30;9.93;;;5.90;;
15012;SDS011;7603;49.432;11.418;2023-07-02T07:00:55;7.32;;;6.63;;
15012;SDS011;7603;49.432;11.418;2023-07-02T07:03:21;7.00;;;6.32;;
15012;SDS011;7603;49.432;11.418;2023-07-02T07:05:47;8.77;;;6.53;;
15012;SDS011;7603;49.432;11.418;2023-07-02T07:08:12;11.77;;;6.85;;
15012;SDS011;7603;49.432;11.418;2023-07-02T07:10:38;8.15;;;7.28;;
15012;SDS011;7603;49.432;11.418;2023-07-02T07:13:03;9.43;;;7.40;;
15012;SDS011;7603;49.432;11.418;2023-07-02T07:15:30;10.93;;;7.55;;
15012;SDS011;7603;49.432;11.418;2023-07-02T07:17:57;7.60;;;6.38;;
15012;SDS011;7603;49.432;11.418;2023-07-02T07:20:23;7.78;;;7.00;;
15012;SDS011;7603;49.432;11.418;2023-07-02T07:22:48;8.05;;;7.05;;
15012;SDS011;7603;49.432;11.418;2023-07-02T07:25:14;9.00;;;8.10;;
15012;SDS011;7603;49.432;11.418;2023-07-02T07:27:40;9.82;;;6.90;;
15012;SDS011;7603;49.432;11.418;2023-07-02T07:30:05;9.80;;;7.50;;
15012;SDS011;7603;49.432;11.418;2023-07-02T07:32:32;8.25;;;7.35;;
15012;SDS011;7603;49.432;11.418;2023-07-02T07:34:57;8.77;;;7.60;;
15012;SDS011;7603;49.432;11.418;2023-07-02T07:37:23;9.68;;;8.38;;
15012;SDS011;7603;49.432;11.418;2023-07-02T07:39:50;8.95;;;8.10;;
15012;SDS011;7603;49.432;11.418;2023-07-02T07:42:16;10.13;;;7.72;;
15012;SDS011;7603;49.432;11.418;2023-07-02T07:44:42;8.73;;;7.97;;
15012;SDS011;7603;49.432;11.418;2023-07-02T07:47:09;10.20;;;7.75;;
15012;SDS011;7603;49.432;11.418;2023-07-02T07:49:35;8.75;;;7.63;;
15012;SDS011;7603;49.432;11.418;2023-07-02T07:52:00;10.07;;;8.18;;
15012;SDS011;7603;49.432;11.418;2023-07-02T07:54:26;10.73;;;7.95;;
15012;SDS011;7603;49.432;11.418;2023-07-02T07:56:51;8.13;;;7.32;;
15012;SDS011;7603;49.432;11.418;2023-07-02T07:59:17;9.25;;;8.00;;
15012;SDS011;7603;49.432;11.418;2023-07-02T08:01:43;8.85;;;8.05;;
15012;SDS011;7603;49.432;11.418;2023-07-02T08:04:11;9.93;;;8.25;;
15012;SDS011;7603;49.432;11.418;2023-07-02T08:06:37;8.90;;;8.00;;
15012;SDS011;7603;49.432;11.418;2023-07-02T08:09:03;10.38;;;8.45;;
15012;SDS011;7603;49.432;11.418;2023-07-02T08:11:28;9.65;;;8.05;;
15012;SDS011;7603;49.432;11.418;2023-07-02T08:13:54;11.48;;;8.00;;
15012;SDS011;7603;49.432;11.418;2023-07-02T08:16:20;12.65;;;8.25;;
15012;SDS011;7603;49.432;11.418;2023-07-02T08:18:45;8.80;;;7.70;;
15012;SDS011;7603;49.432;11.418;2023-07-02T08:21:11;10.10;;;7.65;;
15012;SDS011;7603;49.432;11.418;2023-07-02T08:23:36;9.63;;;7.50;;
15012;SDS011;7603;49.432;11.418;2023-07-02T08:26:02;14.20;;;7.68;;
15012;SDS011;7603;49.432;11.418;2023-07-02T08:28:28;8.63;;;6.85;;
15012;SDS011;7603;49.432;11.418;2023-07-02T08:30:54;9.10;;;7.28;;
15012;SDS011;7603;49.432;11.418;2023-07-02T08:33:19;9.32;;;7.55;;
15012;SDS011;7603;49.432;11.418;2023-07-02T08:35:45;8.40;;;7.45;;
15012;SDS011;7603;49.432;11.418;2023-07-02T08:38:11;6.47;;;5.88;;
15012;SDS011;7603;49.432;11.418;2023-07-02T08:40:37;10.15;;;6.90;;
15012;SDS011;7603;49.432;11.418;2023-07-02T08:43:02;9.73;;;7.32;;
15012;SDS011;7603;49.432;11.418;2023-07-02T08:45:28;8.35;;;7.57;;
15012;SDS011;7603;49.432;11.418;2023-07-02T08:47:55;8.73;;;7.00;;
15012;SDS011;7603;49.432;11.418;2023-07-02T08:50:22;7.07;;;6.05;;
15012;SDS011;7603;49.432;11.418;2023-07-02T08:52:48;9.68;;;6.90;;
15012;SDS011;7603;49.432;11.418;2023-07-02T08:55:14;9.55;;;7.40;;
15012;SDS011;7603;49.432;11.418;2023-07-02T08:57:40;7.22;;;6.53;;
15012;SDS011;7603;49.432;11.418;2023-07-02T09:00:14;6.65;;;6.05;;
15012;SDS011;7603;49.432;11.418;2023-07-02T09:02:40;7.00;;;6.32;;
15012;SDS011;7603;49.432;11.418;2023-07-02T09:05:06;7.20;;;6.50;;
15012;SDS011;7603;49.432;11.418;2023-07-02T09:07:32;5.35;;;4.95;;
15012;SDS011;7603;49.432;11.418;2023-07-02T09:10:08;4.88;;;4.47;;
15012;SDS011;7603;49.432;11.418;2023-07-02T09:12:34;6.30;;;5.30;;
15012;SDS011;7603;49.432;11.418;2023-07-02T09:15:00;5.47;;;4.57;;
15012;SDS011;7603;49.432;11.418;2023-07-02T09:17:29;5.70;;;5.20;;
15012;SDS011;7603;49.432;11.418;2023-07-02T09:19:57;4.80;;;4.47;;
15012;SDS011;7603;49.432;11.418;2023-07-02T09:22:27;7.15;;;4.70;;
15012;SDS011;7603;49.432;11.418;2023-07-02T09:24:54;5.65;;;4.43;;
15012;SDS011;7603;49.432;11.418;2023-07-02T09:27:32;4.72;;;4.40;;
15012;SDS011;7603;49.432;11.418;2023-07-02T09:30:10;4.65;;;4.22;;
15012;SDS011;7603;49.432;11.418;2023-07-02T09:32:41;4.80;;;4.38;;
15012;SDS011;7603;49.432;11.418;2023-07-02T09:35:09;4.65;;;4.28;;
15012;SDS011;7603;49.432;11.418;2023-07-02T09:37:35;6.90;;;4.80;;
15012;SDS011;7603;49.432;11.418;2023-07-02T09:40:01;5.13;;;4.07;;
15012;SDS011;7603;49.432;11.418;2023-07-02T09:42:30;4.43;;;4.05;;
15012;SDS011;7603;49.432;11.418;2023-07-02T09:44:56;4.45;;;4.05;;
15012;SDS011;7603;49.432;11.418;2023-07-02T09:47:23;6.03;;;4.90;;
15012;SDS011;7603;49.432;11.418;2023-07-02T09:49:54;4.50;;;4.10;;
15012;SDS011;7603;49.432;11.418;2023-07-02T09:52:24;4.47;;;4.18;;
15012;SDS011;7603;49.432;11.418;2023-07-02T09:54:52;4.40;;;4.03;;
15012;SDS011;7603;49.432;11.418;2023-07-02T09:57:18;5.22;;;4.75;;
15012;SDS011;7603;49.432;11.418;2023-07-02T09:59:44;4.70;;;4.30;;
15012;SDS011;7603;49.432;11.418;2023-07-02T10:02:10;4.88;;;4.38;;
15012;SDS011;7603;49.432;11.418;2023-07-02T10:04:44;4.25;;;3.95;;
15012;SDS011;7603;49.432;11.418;2023-07-02T10:07:13;4.13;;;3.83;;
15012;SDS011;7603;49.432;11.418;2023-07-02T10:09:51;4.28;;;3.85;;
15012;SDS011;7603;49.432;11.418;2023-07-02T10:12:24;4.85;;;3.72;;
15012;SDS011;7603;49.432;11.418;2023-07-02T10:14:51;4.82;;;4.18;;
15012;SDS011;7603;49.432;11.418;2023-07-02T10:19:50;4.00;;;3.70;;
15012;SDS011;7603;49.432;11.418;2023-07-02T10:22:16;4.00;;;3.67;;
15012;SDS011;7603;49.432;11.418;2023-07-02T10:24:50;4.15;;;3.75;;
15012;SDS011;7603;49.432;11.418;2023-07-02T10:27:18;3.25;;;3.05;;
15012;SDS011;7603;49.432;11.418;2023-07-02T10:29:50;4.40;;;4.00;;
15012;SDS011;7603;49.432;11.418;2023-07-02T10:32:25;4.03;;;3.72;;
15012;SDS011;7603;49.432;11.418;2023-07-02T10:34:54;4.38;;;3.55;;
15012;SDS011;7603;49.432;11.418;2023-07-02T10:37:20;3.75;;;3.45;;
15012;SDS011;7603;49.432;11.418;2023-07-02T10:39:46;4.78;;;3.55;;
15012;SDS011;7603;49.432;11.418;2023-07-02T10:42:12;4.25;;;3.85;;
15012;SDS011;7603;49.432;11.418;2023-07-02T10:44:50;4.22;;;3.60;;
15012;SDS011;7603;49.432;11.418;2023-07-02T10:47:17;3.90;;;3.60;;
15012;SDS011;7603;49.432;11.418;2023-07-02T10:49:43;4.95;;;4.00;;
15012;SDS011;7603;49.432;11.418;2023-07-02T10:52:08;4.57;;;3.35;;
15012;SDS011;7603;49.432;11.418;2023-07-02T10:54:41;5.80;;;3.88;;
15012;SDS011;7603;49.432;11.418;2023-07-02T10:57:08;3.80;;;3.33;;
15012;SDS011;7603;49.432;11.418;2023-07-02T10:59:34;4.13;;;3.75;;
15012;SDS011;7603;49.432;11.418;2023-07-02T11:02:00;7.50;;;3.72;;
15012;SDS011;7603;49.432;11.418;2023-07-02T11:04:29;5.32;;;4.40;;
15012;SDS011;7603;49.432;11.418;2023-07-02T11:06:58;3.85;;;3.55;;
15012;SDS011;7603;49.432;11.418;2023-07-02T11:09:25;4.10;;;3.70;;
15012;SDS011;7603;49.432;11.418;2023-07-02T11:11:55;4.90;;;4.50;;
15012;SDS011;7603;49.432;11.418;2023-07-02T11:14:34;4.20;;;3.90;;
15012;SDS011;7603;49.432;11.418;2023-07-02T11:17:04;4.72;;;4.28;;
15012;SDS011;7603;49.432;11.418;2023-07-02T11:19:32;6.10;;;4.57;;
15012;SDS011;7603;49.432;11.418;2023-07-02T11:21:58;4.95;;;4.55;;
15012;SDS011;7603;49.432;11.418;2023-07-02T11:24:34;4.20;;;3.90;;
15012;SDS011;7603;49.432;11.418;2023-07-02T11:27:02;4.80;;;4.40;;
15012;SDS011;7603;49.432;11.418;2023-07-02T11:29:31;5.00;;;4.55;;
15012;SDS011;7603;49.432;11.418;2023-07-02T11:34:34;5.00;;;4.70;;
15012;SDS011;7603;49.432;11.418;2023-07-02T11:37:00;5.15;;;4.70;;
15012;SDS011;7603;49.432;11.418;2023-07-02T11:39:25;4.78;;;4.35;;
15012;SDS011;7603;49.432;11.418;2023-07-02T11:41:51;4.70;;;4.40;;
15012;SDS011;7603;49.432;11.418;2023-07-02T11:44:17;5.10;;;4.53;;
15012;SDS011;7603;49.432;11.418;2023-07-02T11:46:43;5.00;;;4.50;;
15012;SDS011;7603;49.432;11.418;2023-07-02T11:49:09;5.30;;;4.90;;
15012;SDS011;7603;49.432;11.418;2023-07-02T11:51:36;4.68;;;4.35;;
15012;SDS011;7603;49.432;11.418;2023-07-02T11:54:03;4.68;;;4.32;;
15012;SDS011;7603;49.432;11.418;2023-07-02T11:56:29;4.80;;;4.40;;
15012;SDS011;7603;49.432;11.418;2023-07-02T11:58:55;5.18;;;4.70;;
15012;SDS011;7603;49.432;11.418;2023-07-02T12:01:20;5.10;;;4.75;;
15012;SDS011;7603;49.432;11.418;2023-07-02T12:03:46;5.18;;;4.78;;
15012;SDS011;7603;49.432;11.418;2023-07-02T12:06:11;5.35;;;4.95;;
15012;SDS011;7603;49.432;11.418;2023-07-02T12:08:37;6.88;;;4.80;;
15012;SDS011;7603;49.432;11.418;2023-07-02T12:11:03;5.95;;;4.60;;
15012;SDS011;7603;49.432;11.418;2023-07-02T12:13:28;4.90;;;4.50;;
15012;SDS011;7603;49.432;11.418;2023-07-02T12:15:57;5.72;;;5.32;;
15012;SDS011;7603;49.432;11.418;2023-07-02T12:18:22;6.72;;;6.18;;
15012;SDS011;7603;49.432;11.418;2023-07-02T12:20:48;6.22;;;5.80;;
15012;SDS011;7603;49.432;11.418;2023-07-02T12:23:13;6.05;;;5.55;;
15012;SDS011;7603;49.432;11.418;2023-07-02T12:25:39;7.55;;;6.95;;
15012;SDS011;7603;49.432;11.418;2023-07-02T12:28:05;7.40;;;6.80;;
15012;SDS011;7603;49.432;11.418;2023-07-02T12:30:31;6.72;;;6.13;;
15012;SDS011;7603;49.432;11.418;2023-07-02T12:32:57;6.57;;;6.07;;
15012;SDS011;7603;49.432;11.418;2023-07-02T12:35:23;7.07;;;6.45;;
15012;SDS011;7603;49.432;11.418;2023-07-02T12:37:49;7.50;;;7.00;;
15012;SDS011;7603;49.432;11.418;2023-07-02T12:40:16;10.10;;;7.00;;
15012;SDS011;7603;49.432;11.418;2023-07-02T12:42:42;8.05;;;7.40;;
15012;SDS011;7603;49.432;11.418;2023-07-02T12:45:09;8.10;;;7.05;;
15012;SDS011;7603;49.432;11.418;2023-07-02T12:47:36;8.88;;;7.90;;
15012;SDS011;7603;49.432;11.418;2023-07-02T12:50:03;9.35;;;7.95;;
15012;SDS011;7603;49.432;11.418;2023-07-02T12:52:30;9.82;;;8.38;;
15012;SDS011;7603;49.432;11.418;2023-07-02T12:54:55;9.95;;;9.13;;
15012;SDS011;7603;49.432;11.418;2023-07-02T12:57:21;9.23;;;8.32;;
15012;SDS011;7603;49.432;11.418;2023-07-02T12:59:46;9.98;;;8.95;;
15012;SDS011;7603;49.432;11.418;2023-07-02T13:02:12;9.70;;;8.93;;
15012;SDS011;7603;49.432;11.418;2023-07-02T13:04:38;9.98;;;9.20;;
15012;SDS011;7603;49.432;11.418;2023-07-02T13:07:03;10.35;;;9.45;;
15012;SDS011;7603;49.432;11.418;2023-07-02T13:09:29;88.60;;;43.00;;
15012;SDS011;7603;49.432;11.418;2023-07-02T13:11:55;21.70;;;16.15;;
15012;SDS011;7603;49.432;11.418;2023-07-02T13:14:20;9.75;;;8.75;;
15012;SDS011;7603;49.432;11.418;2023-07-02T13:16:46;10.73;;;9.65;;
15012;SDS011;7603;49.432;11.418;2023-07-02T13:19:12;9.43;;;8.63;;
15012;SDS011;7603;49.432;11.418;2023-07-02T13:21:38;10.55;;;9.55;;
15012;SDS011;7603;49.432;11.418;2023-07-02T13:24:04;10.18;;;9.25;;
15012;SDS011;7603;49.432;11.418;2023-07-02T13:26:30;10.13;;;9.20;;
15012;SDS011;7603;49.432;11.418;2023-07-02T13:28:55;16.45;;;8.80;;
15012;SDS011;7603;49.432;11.418;2023-07-02T13:31:21;9.80;;;9.05;;
15012;SDS011;7603;49.432;11.418;2023-07-02T13:33:47;10.20;;;9.30;;
15012;SDS011;7603;49.432;11.418;2023-07-02T13:36:15;9.93;;;9.05;;
15012;SDS011;7603;49.432;11.418;2023-07-02T13:38:41;10.38;;;9.25;;
15012;SDS011;7603;49.432;11.418;2023-07-02T13:41:07;9.98;;;9.10;;
15012;SDS011;7603;49.432;11.418;2023-07-02T13:43:33;9.38;;;8.68;;
15012;SDS011;7603;49.432;11.418;2023-07-02T13:45:58;9.63;;;8.75;;
15012;SDS011;7603;49.432;11.418;2023-07-02T13:48:24;10.30;;;9.35;;
15012;SDS011;7603;49.432;11.418;2023-07-02T13:50:52;9.35;;;8.55;;
15012;SDS011;7603;49.432;11.418;2023-07-02T13:53:18;10.10;;;9.27;;
15012;SDS011;7603;49.432;11.418;2023-07-02T13:55:44;9.70;;;8.85;;
15012;SDS011;7603;49.432;11.418;2023-07-02T13:58:10;9.48;;;8.77;;
15012;SDS011;7603;49.432;11.418;2023-07-02T14:00:36;10.45;;;9.38;;
15012;SDS011;7603;49.432;11.418;2023-07-02T14:03:01;10.40;;;9.38;;
15012;SDS011;7603;49.432;11.418;2023-07-02T14:05:27;10.40;;;9.50;;
15012;SDS011;7603;49.432;11.418;2023-07-02T14:07:53;10.05;;;9.20;;
15012;SDS011;7603;49.432;11.418;2023-07-02T14:10:18;9.65;;;8.82;;
15012;SDS011;7603;49.432;11.418;2023-07-02T14:12:44;9.45;;;8.75;;
15012;SDS011;7603;49.432;11.418;2023-07-02T14:15:10;11.43;;;10.02;;
15012;SDS011;7603;49.432;11.418;2023-07-02T14:17:36;10.18;;;9.38;;
15012;SDS011;7603;49.432;11.418;2023-07-02T14:20:02;13.18;;;9.68;;
15012;SDS011;7603;49.432;11.418;2023-07-02T14:22:29;11.45;;;10.45;;
15012;SDS011;7603;49.432;11.418;2023-07-02T14:24:54;10.60;;;9.55;;
15012;SDS011;7603;49.432;11.418;2023-07-02T14:27:20;10.93;;;10.02;;
15012;SDS011;7603;49.432;11.418;2023-07-02T14:29:46;11.00;;;10.02;;
15012;SDS011;7603;49.432;11.418;2023-07-02T14:32:12;11.88;;;10.35;;
15012;SDS011;7603;49.432;11.418;2023-07-02T14:34:38;11.57;;;10.55;;
15012;SDS011;7603;49.432;11.418;2023-07-02T14:37:04;10.88;;;9.85;;
15012;SDS011;7603;49.432;11.418;2023-07-02T14:39:30;10.80;;;9.70;;
15012;SDS011;7603;49.432;11.418;2023-07-02T14:41:56;11.43;;;10.48;;
15012;SDS011;7603;49.432;11.418;2023-07-02T14:44:21;11.55;;;10.55;;
15012;SDS011;7603;49.432;11.418;2023-07-02T14:46:47;11.95;;;10.73;;
15012;SDS011;7603;49.432;11.418;2023-07-02T14:49:13;11.70;;;10.48;;